createdAt,value
2023-05-02T00:02:26.716Z,1.73
2023-05-02T00:04:53.935Z,1.90
2023-05-02T00:07:21.616Z,1.90
2023-05-02T00:09:48.773Z,1.97
2023-05-02T00:12:16.022Z,2.53
2023-05-02T00:14:43.183Z,2.17
2023-05-02T00:17:18.647Z,2.58
2023-05-02T00:19:46.626Z,2.73
2023-05-02T00:22:13.822Z,2.83
2023-05-02T00:24:41.000Z,2.07
2023-05-02T00:27:08.184Z,2.50
2023-05-02T00:29:35.634Z,2.20
2023-05-02T00:32:02.708Z,2.87
2023-05-02T00:34:31.403Z,2.80
2023-05-02T00:36:58.740Z,3.10
2023-05-02T00:39:26.080Z,3.30
2023-05-02T00:41:59.836Z,2.83
2023-05-02T00:44:27.284Z,3.37
2023-05-02T00:46:58.753Z,3.40
2023-05-02T00:49:26.018Z,3.20
2023-05-02T00:51:54.528Z,3.40
2023-05-02T00:54:21.780Z,2.40
2023-05-02T00:56:48.883Z,3.90
2023-05-02T00:59:17.999Z,3.17
2023-05-02T01:01:47.964Z,3.50
2023-05-02T01:04:37.063Z,2.30
2023-05-02T01:07:54.502Z,3.40
2023-05-02T01:10:59.369Z,3.40
2023-05-02T01:13:33.998Z,4.13
2023-05-02T01:16:03.565Z,3.30
2023-05-02T01:18:34.868Z,3.97
2023-05-02T01:21:07.509Z,3.53
2023-05-02T01:23:57.349Z,2.90
2023-05-02T01:26:44.253Z,3.50
2023-05-02T01:29:13.844Z,2.70
2023-05-02T01:31:48.349Z,2.50
2023-05-02T01:34:18.670Z,2.60
2023-05-02T01:36:48.914Z,2.25
2023-05-02T01:39:21.706Z,2.90
2023-05-02T01:41:56.231Z,2.50
2023-05-02T01:44:24.824Z,2.50
2023-05-02T01:46:55.211Z,2.23
2023-05-02T01:49:24.540Z,1.90
2023-05-02T01:51:53.014Z,1.57
2023-05-02T01:54:23.518Z,1.50
2023-05-02T01:56:52.318Z,2.13
2023-05-02T01:59:23.482Z,1.95
2023-05-02T02:01:52.580Z,1.80
2023-05-02T02:04:21.067Z,1.60
2023-05-02T02:06:52.777Z,1.73
2023-05-02T02:09:20.930Z,2.08
2023-05-02T02:11:53.720Z,1.90
2023-05-02T02:14:25.212Z,1.87
2023-05-02T02:16:57.811Z,1.73
2023-05-02T02:19:25.275Z,1.50
2023-05-02T02:21:54.445Z,2.60
2023-05-02T02:24:22.914Z,1.85
2023-05-02T02:26:51.175Z,1.85
2023-05-02T02:29:18.419Z,2.03
2023-05-02T02:31:46.741Z,1.70
2023-05-02T02:34:15.596Z,2.50
2023-05-02T02:36:53.602Z,2.17
2023-05-02T02:39:34.087Z,1.73
2023-05-02T02:42:24.446Z,2.20
2023-05-02T02:45:11.708Z,1.88
2023-05-02T02:47:49.572Z,2.03
2023-05-02T02:50:19.578Z,2.00
2023-05-02T02:52:59.229Z,2.28
2023-05-02T02:56:03.156Z,2.08
2023-05-02T02:59:05.537Z,1.30
2023-05-02T03:01:34.520Z,1.70
2023-05-02T03:04:08.146Z,1.92
2023-05-02T03:06:37.787Z,1.70
2023-05-02T03:09:06.025Z,1.80
2023-05-02T03:11:33.309Z,1.60
2023-05-02T03:14:00.556Z,2.03
2023-05-02T03:16:35.423Z,2.00
2023-05-02T03:19:06.090Z,1.95
2023-05-02T03:21:33.684Z,1.58
2023-05-02T03:24:07.434Z,1.50
2023-05-02T03:26:34.638Z,1.40
2023-05-02T03:29:03.096Z,2.00
2023-05-02T03:31:35.889Z,1.60
2023-05-02T03:34:04.107Z,1.20
2023-05-02T03:36:31.704Z,1.63
2023-05-02T03:38:58.876Z,1.10
2023-05-02T03:41:26.085Z,1.60
2023-05-02T03:44:00.597Z,1.52
2023-05-02T03:46:28.690Z,1.85
2023-05-02T03:48:58.294Z,1.38
2023-05-02T03:51:26.830Z,1.63
2023-05-02T03:53:56.630Z,1.40
2023-05-02T03:56:24.354Z,1.80
2023-05-02T03:59:02.020Z,1.58
2023-05-02T04:01:29.254Z,1.95
2023-05-02T04:03:58.191Z,1.58
2023-05-02T04:06:27.706Z,1.83
2023-05-02T04:08:59.784Z,1.80
2023-05-02T04:11:33.134Z,1.80
2023-05-02T04:14:01.253Z,1.30
2023-05-02T04:16:29.033Z,2.15
2023-05-02T04:18:56.850Z,2.22
2023-05-02T04:21:25.272Z,2.00
2023-05-02T04:23:52.986Z,1.70
2023-05-02T04:26:20.417Z,1.30
2023-05-02T04:28:54.089Z,1.60
2023-05-02T04:31:21.287Z,1.10
2023-05-02T04:33:51.367Z,1.70
2023-05-02T04:36:22.699Z,1.52
2023-05-02T04:38:50.450Z,1.50
2023-05-02T04:41:18.418Z,1.70
2023-05-02T04:43:52.131Z,1.52
2023-05-02T04:46:19.603Z,1.80
2023-05-02T04:48:47.006Z,1.45
2023-05-02T04:51:16.771Z,1.67
2023-05-02T04:53:46.660Z,1.77
2023-05-02T04:56:14.635Z,1.60
2023-05-02T04:58:42.642Z,1.87
2023-05-02T05:01:11.215Z,1.60
2023-05-02T05:03:38.577Z,1.88
2023-05-02T05:06:07.497Z,1.58
2023-05-02T05:08:35.054Z,1.50
2023-05-02T05:11:05.264Z,1.30
2023-05-02T05:13:33.166Z,1.77
2023-05-02T05:16:00.478Z,1.33
2023-05-02T05:18:31.047Z,1.17
2023-05-02T05:20:58.453Z,1.58
2023-05-02T05:23:25.657Z,1.33
2023-05-02T05:25:52.843Z,1.65
2023-05-02T05:28:19.972Z,1.40
2023-05-02T05:30:47.771Z,1.10
2023-05-02T05:33:18.881Z,1.05
2023-05-02T05:35:46.150Z,0.90
2023-05-02T05:38:13.187Z,1.33
2023-05-02T05:40:43.320Z,1.30
2023-05-02T05:43:10.646Z,1.33
2023-05-02T05:45:39.417Z,1.73
2023-05-02T05:48:07.426Z,1.30
2023-05-02T05:50:40.706Z,1.17
2023-05-02T05:53:08.113Z,1.10
2023-05-02T05:55:39.096Z,1.13
2023-05-02T05:58:08.408Z,1.33
2023-05-02T06:00:39.939Z,1.65
2023-05-02T06:03:09.607Z,1.27
2023-05-02T06:05:37.909Z,1.88
2023-05-02T06:08:05.167Z,1.92
2023-05-02T06:10:32.843Z,1.40
2023-05-02T06:13:00.076Z,1.23
2023-05-02T06:15:35.290Z,1.30
2023-05-02T06:18:04.577Z,1.65
2023-05-02T06:20:31.732Z,1.30
2023-05-02T06:22:59.508Z,0.80
2023-05-02T06:25:26.811Z,1.30
2023-05-02T06:27:53.952Z,1.27
2023-05-02T06:30:21.025Z,1.27
2023-05-02T06:32:48.416Z,1.23
2023-05-02T06:35:16.187Z,1.10
2023-05-02T06:37:43.693Z,1.55
2023-05-02T06:40:11.237Z,1.00
2023-05-02T06:42:38.382Z,1.50
2023-05-02T06:45:05.935Z,1.23
2023-05-02T06:47:33.575Z,1.65
2023-05-02T06:50:00.910Z,1.60
2023-05-02T06:52:28.340Z,1.30
2023-05-02T06:54:55.523Z,1.67
2023-05-02T06:57:22.729Z,1.13
2023-05-02T06:59:49.846Z,1.48
2023-05-02T07:02:17.054Z,1.15
2023-05-02T07:04:44.299Z,1.00
2023-05-02T07:07:11.511Z,0.98
2023-05-02T07:09:38.637Z,0.85
2023-05-02T07:12:07.070Z,1.08
2023-05-02T07:14:34.327Z,1.15
2023-05-02T07:17:01.693Z,1.42
2023-05-02T07:19:28.900Z,1.20
2023-05-02T07:21:56.146Z,0.85
2023-05-02T07:24:23.425Z,0.90
2023-05-02T07:26:50.621Z,1.00
2023-05-02T07:29:17.666Z,1.40
2023-05-02T07:31:44.870Z,1.08
2023-05-02T07:34:12.209Z,1.20
2023-05-02T07:36:39.491Z,0.88
2023-05-02T07:39:06.640Z,1.08
2023-05-02T07:41:33.934Z,0.70
2023-05-02T07:44:01.007Z,1.00
2023-05-02T07:46:28.201Z,1.30
2023-05-02T07:48:55.950Z,1.00
2023-05-02T07:51:23.091Z,0.80
2023-05-02T07:53:54.581Z,0.75
2023-05-02T07:56:22.085Z,0.80
2023-05-02T07:58:50.168Z,0.90
2023-05-02T08:01:17.817Z,0.60
2023-05-02T08:03:47.198Z,0.80
2023-05-02T08:06:14.630Z,0.90
2023-05-02T08:08:41.932Z,0.93
2023-05-02T08:11:09.149Z,0.80
2023-05-02T08:13:36.354Z,0.80
2023-05-02T08:16:03.632Z,0.80
2023-05-02T08:18:30.878Z,1.30
2023-05-02T08:21:00.564Z,1.17
2023-05-02T08:23:27.698Z,0.85
2023-05-02T08:25:54.906Z,1.13
2023-05-02T08:28:22.155Z,0.70
2023-05-02T08:30:49.342Z,1.05
2023-05-02T08:33:16.624Z,0.90
2023-05-02T08:35:43.821Z,1.00
2023-05-02T08:38:11.508Z,0.70
2023-05-02T08:40:42.675Z,0.98
2023-05-02T08:43:12.027Z,0.85
2023-05-02T08:45:44.394Z,1.13
2023-05-02T08:48:13.969Z,0.60
2023-05-02T08:50:43.601Z,0.80
2023-05-02T08:53:11.937Z,0.90
2023-05-02T08:55:40.973Z,0.68
2023-05-02T08:58:09.586Z,1.00
2023-05-02T09:00:42.985Z,1.05
2023-05-02T09:03:23.747Z,0.70
2023-05-02T09:06:04.945Z,0.70
2023-05-02T09:08:32.225Z,0.80
2023-05-02T09:10:59.639Z,1.00
2023-05-02T09:13:56.346Z,1.08
2023-05-02T09:16:25.991Z,1.45
2023-05-02T09:18:55.433Z,0.90
2023-05-02T09:21:27.199Z,0.80
2023-05-02T09:23:57.049Z,1.23
2023-05-02T09:26:34.104Z,1.10
2023-05-02T09:29:03.615Z,0.82
2023-05-02T09:31:55.073Z,0.70
2023-05-02T09:34:24.087Z,0.60
2023-05-02T09:36:54.433Z,0.60
2023-05-02T09:39:29.570Z,0.70
2023-05-02T09:41:57.350Z,0.57
2023-05-02T09:44:26.330Z,1.05
2023-05-02T09:46:55.681Z,0.80
2023-05-02T09:49:42.607Z,0.90
2023-05-02T09:52:14.697Z,0.80
2023-05-02T09:54:42.106Z,0.98
2023-05-02T09:57:11.066Z,1.23
2023-05-02T09:59:40.220Z,0.70
2023-05-02T10:02:09.851Z,0.90
2023-05-02T10:04:37.918Z,1.20
2023-05-02T10:07:06.778Z,0.90
2023-05-02T10:09:37.285Z,0.77
2023-05-02T10:12:05.346Z,1.10
2023-05-02T10:14:39.618Z,0.82
2023-05-02T10:17:14.485Z,0.90
2023-05-02T10:19:52.738Z,0.90
2023-05-02T10:22:20.818Z,1.08
2023-05-02T10:24:50.754Z,0.77
2023-05-02T10:27:18.267Z,0.90
2023-05-02T10:29:47.313Z,0.93
2023-05-02T10:32:18.436Z,1.73
2023-05-02T10:34:55.174Z,0.75
2023-05-02T10:37:26.685Z,0.90
2023-05-02T10:39:53.917Z,0.60
2023-05-02T10:42:21.663Z,1.08
2023-05-02T10:44:50.610Z,0.70
2023-05-02T10:47:26.698Z,0.80
2023-05-02T10:50:00.113Z,0.90
2023-05-02T10:52:33.445Z,0.90
2023-05-02T10:55:17.192Z,0.85
2023-05-02T10:58:02.408Z,0.82
2023-05-02T11:00:34.105Z,0.80
2023-05-02T11:03:02.532Z,0.77
2023-05-02T11:05:30.518Z,0.80
2023-05-02T11:08:33.322Z,0.80
2023-05-02T11:11:50.733Z,0.70
2023-05-02T11:14:30.333Z,0.80
2023-05-02T11:17:09.542Z,1.17
2023-05-02T11:20:01.908Z,0.82
2023-05-02T11:22:32.352Z,0.90
2023-05-02T11:24:59.908Z,0.80
2023-05-02T11:27:33.820Z,0.88
2023-05-02T11:30:01.885Z,0.73
2023-05-02T11:32:47.959Z,1.00
2023-05-02T11:35:27.464Z,0.80
2023-05-02T11:37:55.125Z,0.90
2023-05-02T11:40:23.018Z,1.23
2023-05-02T11:42:50.583Z,0.98
2023-05-02T11:45:18.842Z,1.17
2023-05-02T11:47:49.497Z,1.48
2023-05-02T11:50:17.830Z,1.05
2023-05-02T11:52:46.451Z,0.85
2023-05-02T11:55:15.276Z,1.10
2023-05-02T11:57:43.126Z,1.25
2023-05-02T12:00:13.605Z,0.93
2023-05-02T12:02:49.392Z,1.00
2023-05-02T12:05:32.805Z,1.08
2023-05-02T12:08:02.022Z,1.00
2023-05-02T12:10:39.141Z,1.05
2023-05-02T12:13:07.903Z,0.90
2023-05-02T12:15:47.450Z,1.35
2023-05-02T12:18:15.843Z,1.25
2023-05-02T12:20:43.437Z,1.65
2023-05-02T12:23:11.384Z,1.40
2023-05-02T12:25:43.049Z,1.20
2023-05-02T12:28:10.859Z,1.20
2023-05-02T12:30:40.276Z,1.23
2023-05-02T12:33:07.981Z,1.05
2023-05-02T12:35:36.263Z,1.20
2023-05-02T12:38:10.785Z,1.17
2023-05-02T12:40:38.339Z,1.00
2023-05-02T12:43:08.256Z,1.13
2023-05-02T12:45:35.597Z,2.08
2023-05-02T12:48:29.202Z,1.33
2023-05-02T12:50:56.401Z,1.08
2023-05-02T12:53:43.928Z,1.60
2023-05-02T12:56:12.048Z,1.33
2023-05-02T12:58:47.349Z,1.05
2023-05-02T13:01:15.608Z,1.17
2023-05-02T13:03:43.851Z,1.10
2023-05-02T13:06:11.526Z,1.50
2023-05-02T13:08:38.864Z,1.30
2023-05-02T13:11:06.444Z,2.03
2023-05-02T13:13:35.767Z,1.02
2023-05-02T13:16:04.108Z,1.23
2023-05-02T13:18:31.846Z,1.30
2023-05-02T13:21:02.112Z,1.67
2023-05-02T13:23:29.889Z,1.83
2023-05-02T13:25:57.163Z,1.73
2023-05-02T13:28:24.680Z,1.20
2023-05-02T13:30:52.311Z,1.00
2023-05-02T13:33:20.062Z,1.00
2023-05-02T13:35:47.427Z,1.30
2023-05-02T13:38:14.922Z,1.35
2023-05-02T13:40:42.232Z,1.52
2023-05-02T13:43:09.686Z,1.45
2023-05-02T13:45:37.310Z,1.10
2023-05-02T13:48:05.124Z,1.25
2023-05-02T13:50:32.653Z,1.38
2023-05-02T13:53:00.164Z,1.48
2023-05-02T13:55:27.565Z,1.55
2023-05-02T13:57:55.066Z,1.15
2023-05-02T14:00:22.577Z,1.05
2023-05-02T14:02:50.418Z,1.23
2023-05-02T14:05:17.804Z,1.33
2023-05-02T14:07:45.312Z,1.20
2023-05-02T14:10:12.854Z,1.30
2023-05-02T14:12:40.318Z,1.48
2023-05-02T14:15:08.597Z,1.42
2023-05-02T14:17:36.176Z,1.25
2023-05-02T14:20:04.041Z,1.48
2023-05-02T14:22:32.427Z,1.63
2023-05-02T14:24:59.961Z,1.65
2023-05-02T14:27:27.779Z,1.30
2023-05-02T14:29:55.130Z,1.27
2023-05-02T14:32:22.912Z,1.30
2023-05-02T14:34:50.151Z,1.40
2023-05-02T14:37:17.540Z,1.50
2023-05-02T14:39:46.950Z,1.67
2023-05-02T14:42:15.340Z,1.50
2023-05-02T14:44:42.848Z,1.50
2023-05-02T14:47:10.109Z,1.35
2023-05-02T14:49:37.339Z,1.20
2023-05-02T14:52:04.762Z,1.85
2023-05-02T14:54:31.994Z,1.60
2023-05-02T14:57:00.075Z,2.35
2023-05-02T14:59:31.565Z,1.50
2023-05-02T15:01:59.013Z,1.85
2023-05-02T15:04:27.295Z,1.80
2023-05-02T15:06:55.685Z,1.83
2023-05-02T15:09:26.472Z,1.25
2023-05-02T15:11:54.085Z,0.90
2023-05-02T15:14:22.585Z,1.08
2023-05-02T15:16:51.049Z,1.50
2023-05-02T15:19:18.425Z,1.40
2023-05-02T15:21:45.636Z,1.42
2023-05-02T15:24:12.998Z,1.70
2023-05-02T15:26:42.631Z,1.75
2023-05-02T15:29:09.996Z,1.63
2023-05-02T15:31:37.381Z,1.05
2023-05-02T15:34:04.785Z,1.35
2023-05-02T15:36:32.997Z,1.40
2023-05-02T15:39:00.373Z,1.50
2023-05-02T15:41:27.661Z,0.95
2023-05-02T15:43:55.223Z,0.93
2023-05-02T15:46:22.396Z,1.50
2023-05-02T15:48:50.744Z,1.30
2023-05-02T15:51:18.381Z,1.20
2023-05-02T15:53:49.865Z,1.25
2023-05-02T15:56:17.167Z,1.58
2023-05-02T15:58:44.532Z,1.85
2023-05-02T16:01:11.990Z,1.67
2023-05-02T16:03:39.413Z,1.17
2023-05-02T16:06:07.817Z,1.80
2023-05-02T16:08:35.578Z,1.38
2023-05-02T16:11:03.905Z,1.50
2023-05-02T16:13:35.088Z,1.70
2023-05-02T16:16:08.347Z,1.70
2023-05-02T16:18:36.207Z,1.15
2023-05-02T16:21:08.653Z,1.70
2023-05-02T16:23:37.096Z,1.20
2023-05-02T16:26:05.783Z,1.90
2023-05-02T16:28:36.715Z,1.73
2023-05-02T16:31:11.602Z,1.35
2023-05-02T16:33:44.559Z,1.10
2023-05-02T16:36:12.245Z,1.60
2023-05-02T16:38:43.685Z,1.10
2023-05-02T16:41:11.419Z,1.08
2023-05-02T16:43:39.052Z,1.20
2023-05-02T16:46:09.547Z,1.40
2023-05-02T16:48:37.203Z,1.70
2023-05-02T16:51:04.776Z,0.95
2023-05-02T16:53:32.435Z,1.30
2023-05-02T16:56:00.025Z,1.33
2023-05-02T16:58:30.572Z,1.70
2023-05-02T17:01:00.660Z,1.30
2023-05-02T17:03:29.764Z,1.90
2023-05-02T17:06:02.122Z,1.45
2023-05-02T17:08:30.772Z,1.88
2023-05-02T17:10:58.160Z,1.45
2023-05-02T17:13:25.599Z,1.30
2023-05-02T17:15:55.851Z,1.48
2023-05-02T17:18:24.395Z,1.20
2023-05-02T17:20:52.207Z,1.50
2023-05-02T17:23:20.143Z,1.48
2023-05-02T17:25:47.974Z,1.55
2023-05-02T17:28:16.277Z,1.45
2023-05-02T17:30:45.132Z,1.00
2023-05-02T17:33:12.590Z,1.40
2023-05-02T17:35:40.239Z,1.48
2023-05-02T17:38:07.380Z,1.00
2023-05-02T17:40:39.699Z,2.22
2023-05-02T17:43:10.522Z,1.38
2023-05-02T17:45:39.842Z,1.45
2023-05-02T17:48:07.398Z,1.10
2023-05-02T17:50:42.891Z,1.83
2023-05-02T17:53:10.373Z,1.77
2023-05-02T17:55:38.778Z,1.65
2023-05-02T17:58:06.485Z,1.30
2023-05-02T18:00:33.924Z,1.35
2023-05-02T18:03:01.294Z,1.55
2023-05-02T18:05:28.721Z,1.02
2023-05-02T18:07:56.159Z,1.13
2023-05-02T18:10:23.491Z,1.42
2023-05-02T18:12:51.139Z,1.67
2023-05-02T18:15:18.539Z,1.42
2023-05-02T18:17:45.919Z,1.90
2023-05-02T18:20:14.623Z,1.30
2023-05-02T18:22:42.430Z,1.25
2023-05-02T18:25:09.847Z,1.10
2023-05-02T18:27:37.437Z,1.60
2023-05-02T18:30:05.339Z,1.98
2023-05-02T18:32:36.147Z,1.40
2023-05-02T18:35:06.586Z,1.25
2023-05-02T18:37:34.843Z,1.10
2023-05-02T18:40:03.351Z,1.60
2023-05-02T18:42:31.519Z,1.52
2023-05-02T18:44:58.882Z,1.45
2023-05-02T18:47:26.276Z,1.10
2023-05-02T18:49:56.477Z,1.38
2023-05-02T18:52:25.249Z,1.48
2023-05-02T18:54:53.121Z,1.80
2023-05-02T18:57:21.862Z,1.80
2023-05-02T18:59:49.116Z,1.40
2023-05-02T19:02:16.392Z,1.25
2023-05-02T19:04:44.068Z,1.17
2023-05-02T19:07:11.676Z,1.45
2023-05-02T19:09:38.932Z,1.27
2023-05-02T19:12:06.662Z,1.00
2023-05-02T19:14:36.069Z,1.20
2023-05-02T19:17:06.616Z,1.58
2023-05-02T19:19:34.069Z,2.10
2023-05-02T19:22:01.601Z,1.42
2023-05-02T19:24:28.911Z,1.35
2023-05-02T19:26:56.134Z,1.65
2023-05-02T19:29:23.930Z,1.42
2023-05-02T19:31:51.882Z,1.33
2023-05-02T19:34:19.157Z,1.70
2023-05-02T19:36:46.417Z,2.15
2023-05-02T19:39:13.697Z,1.65
2023-05-02T19:41:42.599Z,1.63
2023-05-02T19:44:09.803Z,2.13
2023-05-02T19:46:36.974Z,1.50
2023-05-02T19:49:04.172Z,1.65
2023-05-02T19:51:34.210Z,1.65
2023-05-02T19:54:01.442Z,1.63
2023-05-02T19:56:28.983Z,1.50
2023-05-02T19:58:59.625Z,1.48
2023-05-02T20:01:29.367Z,1.80
2023-05-02T20:03:57.067Z,1.80
2023-05-02T20:06:24.613Z,1.30
2023-05-02T20:08:53.074Z,2.10
2023-05-02T20:11:20.455Z,1.65
2023-05-02T20:13:47.548Z,1.92
2023-05-02T20:16:14.961Z,1.42
2023-05-02T20:18:42.066Z,1.40
2023-05-02T20:21:09.344Z,1.73
2023-05-02T20:23:36.562Z,1.98
2023-05-02T20:26:03.747Z,1.60
2023-05-02T20:28:30.897Z,1.33
2023-05-02T20:30:58.097Z,1.25
2023-05-02T20:33:30.117Z,1.45
2023-05-02T20:36:04.672Z,1.33
2023-05-02T20:38:34.336Z,2.17
2023-05-02T20:41:03.014Z,1.30
2023-05-02T20:43:30.075Z,1.40
2023-05-02T20:45:57.646Z,1.80
2023-05-02T20:48:24.904Z,1.17
2023-05-02T20:50:55.668Z,1.65
2023-05-02T20:53:24.036Z,1.73
2023-05-02T20:55:51.497Z,1.00
2023-05-02T20:58:18.789Z,1.45
2023-05-02T21:00:52.678Z,1.10
2023-05-02T21:03:21.741Z,2.55
2023-05-02T21:05:56.574Z,1.30
2023-05-02T21:08:23.798Z,1.30
2023-05-02T21:10:54.877Z,1.65
2023-05-02T21:13:22.472Z,2.05
2023-05-02T21:15:50.324Z,1.75
2023-05-02T21:18:17.722Z,1.48
2023-05-02T21:20:46.870Z,2.00
2023-05-02T21:23:14.037Z,1.50
2023-05-02T21:25:41.144Z,1.33
2023-05-02T21:28:08.266Z,1.02
2023-05-02T21:30:35.640Z,1.67
2023-05-02T21:33:02.870Z,1.73
2023-05-02T21:35:34.122Z,1.33
2023-05-02T21:38:01.726Z,1.55
2023-05-02T21:40:31.560Z,1.10
2023-05-02T21:42:58.819Z,1.40
2023-05-02T21:45:26.774Z,1.63
2023-05-02T21:47:54.327Z,1.98
2023-05-02T21:50:21.533Z,1.65
2023-05-02T21:52:48.730Z,1.17
2023-05-02T21:55:16.343Z,2.08
2023-05-02T21:57:43.447Z,1.30
2023-05-02T22:00:13.149Z,1.40
2023-05-02T22:02:42.099Z,1.35
2023-05-02T22:05:09.511Z,1.85
2023-05-02T22:07:37.725Z,2.30
2023-05-02T22:10:05.713Z,1.38
2023-05-02T22:12:32.971Z,1.73
2023-05-02T22:15:00.334Z,1.25
2023-05-02T22:17:27.505Z,2.58
2023-05-02T22:19:55.214Z,1.42
2023-05-02T22:22:22.298Z,1.42
2023-05-02T22:24:49.384Z,1.88
2023-05-02T22:27:16.567Z,1.60
2023-05-02T22:29:43.742Z,1.35
2023-05-02T22:32:11.174Z,1.08
2023-05-02T22:34:38.332Z,1.77
2023-05-02T22:37:05.616Z,1.38
2023-05-02T22:39:32.689Z,1.42
2023-05-02T22:41:59.978Z,1.10
2023-05-02T22:44:27.342Z,1.13
2023-05-02T22:46:54.989Z,1.10
2023-05-02T22:49:21.983Z,1.48
2023-05-02T22:51:49.315Z,1.30
2023-05-02T22:54:16.954Z,1.55
2023-05-02T22:56:44.248Z,1.52
2023-05-02T22:59:11.370Z,1.90
2023-05-02T23:01:38.530Z,1.60
2023-05-02T23:04:05.809Z,1.60
2023-05-02T23:06:33.084Z,1.58
2023-05-02T23:09:00.149Z,1.17
2023-05-02T23:11:27.404Z,1.20
2023-05-02T23:13:54.584Z,1.23
2023-05-02T23:16:21.725Z,1.30
2023-05-02T23:18:49.163Z,1.10
2023-05-02T23:21:17.242Z,1.23
2023-05-02T23:23:44.383Z,1.58
2023-05-02T23:26:11.955Z,1.33
2023-05-02T23:28:39.705Z,1.25
2023-05-02T23:31:07.670Z,1.30
2023-05-02T23:33:36.219Z,1.55
2023-05-02T23:36:03.643Z,1.77
2023-05-02T23:38:31.576Z,1.27
2023-05-02T23:40:58.995Z,1.75
2023-05-02T23:43:26.619Z,1.55
2023-05-02T23:45:53.832Z,1.48
2023-05-02T23:48:21.102Z,1.05
2023-05-02T23:50:48.357Z,1.05
2023-05-02T23:53:15.436Z,1.23
2023-05-02T23:55:42.629Z,1.30
2023-05-02T23:58:10.248Z,0.95
